Time,TemperatureF,DewpointF,PressureIn,WindDirection,WindDirectionDegrees,WindSpeedMPH,WindSpeedGustMPH,Humidity,HourlyPrecipIn,Conditions,Clouds,dailyrainin,SolarRadiationWatts/m^2,SoftwareType,DateUTC
2013-05-29 00:00:00,60.9,60.9,30.15,West,269,0.0,0.0,100,0.00,,,0.00,0,Wunderground v.1.15,2013-05-29 04:00:00,
2013-05-29 00:01:00,60.9,60.9,30.15,West,267,0.0,0.0,100,0.00,,,0.00,0,Wunderground v.1.15,2013-05-29 04:01:00,
2013-05-29 00:02:00,60.9,60.9,30.15,West,267,0.0,1.0,100,0.00,,,0.00,0,Wunderground v.1.15,2013-05-29 04:02:00,
2013-05-29 00:04:00,60.8,60.8,30.15,West,267,0.0,1.0,100,0.00,,,0.00,0,Wunderground v.1.15,2013-05-29 04:04:00,
2013-05-29 00:05:00,60.8,60.8,30.15,West,269,0.0,1.0,100,0.00,,,0.00,0,Wunderground v.1.15,2013-05-29 04:05:00,
2013-05-29 00:06:00,60.8,60.8,30.15,West,269,0.0,1.0,100,0.00,,,0.00,0,Wunderground v.1.15,2013-05-29 04:06:00,
2013-05-29 00:11:00,60.7,60.7,30.15,West,265,0.0,0.0,100,0.00,,,0.00,0,Wunderground v.1.15,2013-05-29 04:11:00,
2013-05-29 00:16:00,60.5,60.5,30.15,West,267,0.0,1.0,100,0.00,,,0.00,0,Wunderground v.1.15,2013-05-29 04:16:00,
2013-05-29 00:22:00,60.4,60.4,30.15,West,266,0.0,0.0,100,0.00,,,0.00,0,Wunderground v.1.15,2013-05-29 04:22:00,
2013-05-29 00:27:00,60.4,60.4,30.15,West,267,0.0,0.0,100,0.00,,,0.00,0,Wunderground v.1.15,2013-05-29 04:27:00,
2013-05-29 00:32:00,60.3,60.3,30.15,West,269,0.0,0.0,100,0.00,,,0.00,0,Wunderground v.1.15,2013-05-29 04:32:00,
2013-05-29 00:38:00,60.1,60.1,30.16,West,269,0.0,1.0,100,0.00,,,0.00,0,Wunderground v.1.15,2013-05-29 04:38:00,
2013-05-29 00:43:00,60.0,60.0,30.15,West,267,0.0,0.0,100,0.00,,,0.00,0,Wunderground v.1.15,2013-05-29 04:43:00,
2013-05-29 00:48:00,59.8,59.8,30.16,West,269,0.0,2.0,100,0.00,,,0.00,0,Wunderground v.1.15,2013-05-29 04:48:00,
2013-05-29 00:53:00,59.7,59.7,30.15,West,269,0.0,0.0,100,0.00,,,0.00,0,Wunderground v.1.15,2013-05-29 04:53:00,
2013-05-29 00:59:00,59.6,59.6,30.15,West,267,0.0,1.0,100,0.00,,,0.00,0,Wunderground v.1.15,2013-05-29 04:59:00,
2013-05-29 01:05:00,59.5,59.5,30.16,West,265,0.0,0.0,100,0.00,,,0.00,0,Wunderground v.1.15,2013-05-29 05:05:00,
2013-05-29 01:10:00,59.5,59.5,30.15,West,267,0.0,0.0,100,0.00,,,0.00,0,Wunderground v.1.15,2013-05-29 05:10:00,
2013-05-29 01:16:00,59.3,59.3,30.15,West,269,0.0,0.0,100,0.00,,,0.00,0,Wunderground v.1.15,2013-05-29 05:16:00,
2013-05-29 01:21:00,59.2,59.2,30.15,West,268,0.0,0.0,100,0.00,,,0.00,0,Wunderground v.1.15,2013-05-29 05:21:00,
2013-05-29 01:26:00,59.2,59.2,30.16,West,268,0.0,0.0,100,0.00,,,0.00,0,Wunderground v.1.15,2013-05-29 05:26:00,
2013-05-29 01:31:00,59.1,59.1,30.16,West,267,0.0,0.0,100,0.00,,,0.00,0,Wunderground v.1.15,2013-05-29 05:31:00,
2013-05-29 01:37:00,59.0,59.0,30.16,West,267,0.0,0.0,100,0.00,,,0.00,0,Wunderground v.1.15,2013-05-29 05:37:00,
2013-05-29 01:42:00,58.8,58.8,30.16,West,269,0.0,0.0,100,0.00,,,0.00,0,Wunderground v.1.15,2013-05-29 05:42:00,
2013-05-29 01:47:00,58.7,58.7,30.16,West,269,0.0,0.0,100,0.00,,,0.00,0,Wunderground v.1.15,2013-05-29 05:47:00,
2013-05-29 01:53:00,58.5,58.5,30.16,West,268,0.0,2.0,100,0.00,,,0.00,0,Wunderground v.1.15,2013-05-29 05:53:00,
2013-05-29 01:58:00,58.5,58.5,30.16,North,360,1.0,2.0,100,0.00,,,0.00,0,Wunderground v.1.15,2013-05-29 05:58:00,
2013-05-29 02:04:00,58.4,58.4,30.16,West,266,1.0,1.0,100,0.00,,,0.00,0,Wunderground v.1.15,2013-05-29 06:04:00,
2013-05-29 02:09:00,58.3,58.3,30.15,West,269,0.0,1.0,100,0.00,,,0.00,0,Wunderground v.1.15,2013-05-29 06:09:00,
2013-05-29 02:15:00,58.1,58.1,30.15,West,266,0.0,0.0,100,0.00,,,0.00,0,Wunderground v.1.15,2013-05-29 06:15:00,
2013-05-29 02:20:00,58.0,58.0,30.15,West,269,0.0,1.0,100,0.00,,,0.00,0,Wunderground v.1.15,2013-05-29 06:20:00,
2013-05-29 02:25:00,57.8,57.8,30.15,West,270,0.0,1.0,100,0.00,,,0.00,0,Wunderground v.1.15,2013-05-29 06:25:00,
2013-05-29 02:31:00,57.7,57.7,30.15,West,268,0.0,0.0,100,0.00,,,0.00,0,Wunderground v.1.15,2013-05-29 06:31:00,
2013-05-29 02:36:00,57.6,57.6,30.15,West,266,0.0,2.0,100,0.00,,,0.00,0,Wunderground v.1.15,2013-05-29 06:36:00,
2013-05-29 02:42:00,57.6,57.6,30.16,West,268,0.0,0.0,100,0.00,,,0.00,0,Wunderground v.1.15,2013-05-29 06:42:00,
2013-05-29 02:47:00,57.4,57.4,30.16,West,267,0.0,1.0,100,0.00,,,0.00,0,Wunderground v.1.15,2013-05-29 06:47:00,
2013-05-29 02:52:00,57.4,57.4,30.16,West,267,0.0,1.0,100,0.00,,,0.00,0,Wunderground v.1.15,2013-05-29 06:52:00,
2013-05-29 02:58:00,57.3,57.3,30.16,West,268,0.0,1.0,100,0.00,,,0.00,0,Wunderground v.1.15,2013-05-29 06:58:00,
2013-05-29 03:04:00,57.1,57.1,30.15,West,270,0.0,0.0,100,0.00,,,0.00,0,Wunderground v.1.15,2013-05-29 07:04:00,
2013-05-29 03:09:00,57.1,57.1,30.16,West,267,0.0,3.0,100,0.00,,,0.00,0,Wunderground v.1.15,2013-05-29 07:09:00,
2013-05-29 03:14:00,57.1,57.1,30.15,West,269,0.0,0.0,100,0.00,,,0.00,0,Wunderground v.1.15,2013-05-29 07:14:00,
2013-05-29 03:20:00,56.9,56.9,30.15,West,269,0.0,0.0,100,0.00,,,0.00,0,Wunderground v.1.15,2013-05-29 07:20:00,
2013-05-29 03:25:00,56.8,56.8,30.15,West,267,0.0,0.0,100,0.00,,,0.00,0,Wunderground v.1.15,2013-05-29 07:25:00,
2013-05-29 03:30:00,56.7,56.7,30.15,West,269,0.0,0.0,100,0.00,,,0.00,0,Wunderground v.1.15,2013-05-29 07:30:00,
2013-05-29 03:36:00,56.6,56.6,30.15,West,269,0.0,0.0,100,0.00,,,0.00,0,Wunderground v.1.15,2013-05-29 07:36:00,
2013-05-29 03:41:00,56.5,56.5,30.15,West,268,0.0,0.0,100,0.00,,,0.00,0,Wunderground v.1.15,2013-05-29 07:41:00,
2013-05-29 03:46:00,56.4,56.4,30.15,West,269,0.0,0.0,100,0.00,,,0.00,0,Wunderground v.1.15,2013-05-29 07:46:00,
2013-05-29 03:52:00,56.3,56.3,30.15,West,269,0.0,1.0,100,0.00,,,0.00,0,Wunderground v.1.15,2013-05-29 07:52:00,
2013-05-29 03:57:00,56.2,56.2,30.15,West,267,1.0,2.0,100,0.00,,,0.00,0,Wunderground v.1.15,2013-05-29 07:57:00,
2013-05-29 04:03:00,56.2,56.2,30.15,West,269,1.0,1.0,100,0.00,,,0.00,0,Wunderground v.1.15,2013-05-29 08:03:00,
2013-05-29 04:08:00,56.2,56.2,30.15,West,267,0.0,2.0,100,0.00,,,0.00,0,Wunderground v.1.15,2013-05-29 08:08:00,
2013-05-29 04:14:00,56.2,56.2,30.15,West,269,1.0,2.0,100,0.00,,,0.00,0,Wunderground v.1.15,2013-05-29 08:14:00,
2013-05-29 04:19:00,56.1,56.1,30.15,West,269,1.0,2.0,100,0.00,,,0.00,0,Wunderground v.1.15,2013-05-29 08:19:00,
2013-05-29 04:24:00,56.1,56.1,30.15,NNE,21,1.0,3.0,100,0.00,,,0.00,0,Wunderground v.1.15,2013-05-29 08:24:00,
2013-05-29 04:30:00,56.0,56.0,30.15,NNE,23,1.0,1.0,100,0.00,,,0.00,0,Wunderground v.1.15,2013-05-29 08:30:00,
2013-05-29 04:35:00,56.0,56.0,30.15,NNE,27,1.0,3.0,100,0.00,,,0.00,0,Wunderground v.1.15,2013-05-29 08:35:00,
2013-05-29 04:40:00,56.1,56.1,30.15,NNE,24,1.0,2.0,100,0.00,,,0.00,0,Wunderground v.1.15,2013-05-29 08:40:00,
2013-05-29 04:46:00,56.1,56.1,30.15,NE,38,2.0,3.0,100,0.00,,,0.00,0,Wunderground v.1.15,2013-05-29 08:46:00,
2013-05-29 04:51:00,56.1,56.1,30.15,NE,40,2.0,2.0,100,0.00,,,0.00,0,Wunderground v.1.15,2013-05-29 08:51:00,
2013-05-29 04:56:00,56.1,56.1,30.15,NE,36,1.0,3.0,100,0.00,,,0.00,0,Wunderground v.1.15,2013-05-29 08:56:00,
2013-05-29 05:02:00,56.1,56.1,30.15,NE,40,2.0,4.0,100,0.00,,,0.00,0,Wunderground v.1.15,2013-05-29 09:02:00,
2013-05-29 05:08:00,56.2,56.2,30.15,NE,46,2.0,4.0,100,0.00,,,0.00,0,Wunderground v.1.15,2013-05-29 09:08:00,
2013-05-29 05:13:00,56.3,56.3,30.15,NE,39,2.0,3.0,100,0.00,,,0.00,0,Wunderground v.1.15,2013-05-29 09:13:00,
2013-05-29 05:18:00,56.4,56.4,30.15,NNE,15,2.0,5.0,100,0.00,,,0.00,0,Wunderground v.1.15,2013-05-29 09:18:00,
2013-05-29 05:24:00,56.4,56.4,30.15,NNE,15,2.0,2.0,100,0.00,,,0.00,0,Wunderground v.1.15,2013-05-29 09:24:00,
2013-05-29 05:29:00,56.3,56.3,30.15,NNE,13,1.0,3.0,100,0.00,,,0.00,0,Wunderground v.1.15,2013-05-29 09:29:00,
2013-05-29 05:34:00,56.3,56.3,30.15,NNE,24,1.0,4.0,100,0.00,,,0.00,0,Wunderground v.1.15,2013-05-29 09:34:00,
2013-05-29 05:39:00,56.4,56.4,30.15,NNE,24,2.0,4.0,100,0.00,,,0.00,0,Wunderground v.1.15,2013-05-29 09:39:00,
2013-05-29 05:45:00,56.4,56.4,30.15,NNE,22,2.0,3.0,100,0.00,,,0.00,0,Wunderground v.1.15,2013-05-29 09:45:00,
2013-05-29 05:50:00,56.4,56.4,30.15,NE,34,2.0,2.0,100,0.00,,,0.01,0,Wunderground v.1.15,2013-05-29 09:50:00,
2013-05-29 05:56:00,56.4,56.4,30.15,NE,34,1.0,2.0,100,0.00,,,0.01,0,Wunderground v.1.15,2013-05-29 09:56:00,
2013-05-29 06:02:00,56.3,56.3,30.15,NE,36,1.0,1.0,100,0.00,,,0.01,9,Wunderground v.1.15,2013-05-29 10:02:00,
2013-05-29 06:07:00,56.2,56.2,30.15,NE,36,1.0,3.0,100,0.00,,,0.01,12,Wunderground v.1.15,2013-05-29 10:07:00,
2013-05-29 06:12:00,56.2,56.2,30.15,NE,36,1.0,1.0,100,0.00,,,0.01,16,Wunderground v.1.15,2013-05-29 10:12:00,
2013-05-29 06:17:00,56.2,56.2,30.15,NE,36,1.0,2.0,100,0.00,,,0.01,21,Wunderground v.1.15,2013-05-29 10:17:00,
2013-05-29 06:23:00,56.2,56.2,30.16,NE,38,1.0,2.0,100,0.00,,,0.01,28,Wunderground v.1.15,2013-05-29 10:23:00,
2013-05-29 06:28:00,56.3,56.3,30.16,NE,36,1.0,2.0,100,0.00,,,0.01,37,Wunderground v.1.15,2013-05-29 10:28:00,
2013-05-29 06:33:00,56.3,56.3,30.16,NE,34,0.0,0.0,100,0.00,,,0.01,46,Wunderground v.1.15,2013-05-29 10:33:00,
2013-05-29 06:39:00,56.5,56.5,30.16,NE,34,0.0,0.0,100,0.00,,,0.01,60,Wunderground v.1.15,2013-05-29 10:39:00,
2013-05-29 06:44:00,56.7,56.7,30.16,NE,36,1.0,2.0,100,0.00,,,0.01,67,Wunderground v.1.15,2013-05-29 10:44:00,
2013-05-29 06:49:00,57.0,57.0,30.17,NE,35,1.0,2.0,100,0.00,,,0.01,79,Wunderground v.1.15,2013-05-29 10:49:00,
2013-05-29 06:55:00,57.3,57.3,30.17,NE,36,0.0,1.0,100,0.00,,,0.01,84,Wunderground v.1.15,2013-05-29 10:55:00,
2013-05-29 07:00:00,57.8,57.8,30.17,NE,36,0.0,0.0,100,0.00,,,0.01,102,Wunderground v.1.15,2013-05-29 11:00:00,
2013-05-29 07:06:00,58.2,58.2,30.17,NE,36,0.0,0.0,100,0.00,,,0.01,111,Wunderground v.1.15,2013-05-29 11:06:00,
2013-05-29 07:11:00,58.5,58.5,30.17,NE,37,0.0,0.0,100,0.00,,,0.01,128,Wunderground v.1.15,2013-05-29 11:11:00,
2013-05-29 07:17:00,59.0,59.0,30.17,NE,37,0.0,1.0,100,0.00,,,0.01,137,Wunderground v.1.15,2013-05-29 11:17:00,
2013-05-29 07:22:00,59.3,59.3,30.17,NNE,32,0.0,0.0,100,0.00,,,0.01,135,Wunderground v.1.15,2013-05-29 11:22:00,
2013-05-29 07:27:00,59.4,59.4,30.17,NNE,31,0.0,2.0,100,0.00,,,0.01,148,Wunderground v.1.15,2013-05-29 11:27:00,
2013-05-29 07:32:00,59.8,59.8,30.17,NE,35,1.0,2.0,100,0.00,,,0.01,169,Wunderground v.1.15,2013-05-29 11:32:00,
2013-05-29 07:38:00,60.3,60.3,30.17,NE,35,1.0,2.0,100,0.00,,,0.01,200,Wunderground v.1.15,2013-05-29 11:38:00,
2013-05-29 07:43:00,60.9,60.9,30.17,ENE,57,1.0,4.0,100,0.00,,,0.01,227,Wunderground v.1.15,2013-05-29 11:43:00,
2013-05-29 07:49:00,61.4,61.4,30.17,NE,55,1.0,4.0,100,0.00,,,0.01,257,Wunderground v.1.15,2013-05-29 11:49:00,
2013-05-29 07:54:00,62.0,62.0,30.17,ESE,105,2.0,3.0,100,0.00,,,0.01,269,Wunderground v.1.15,2013-05-29 11:54:00,
2013-05-29 08:00:00,63.0,63.0,30.16,WNW,302,2.0,2.0,100,0.00,,,0.01,315,Wunderground v.1.15,2013-05-29 12:00:00,
2013-05-29 08:06:00,64.8,64.8,30.16,North,360,4.0,17.0,100,0.00,,,0.01,336,Wunderground v.1.15,2013-05-29 12:06:00,
2013-05-29 08:11:00,67.3,64.6,30.16,West,271,6.0,17.0,91,0.00,,,0.01,313,Wunderground v.1.15,2013-05-29 12:11:00,
2013-05-29 08:16:00,70.0,67.3,30.16,North,360,7.0,17.0,91,0.00,,,0.01,320,Wunderground v.1.15,2013-05-29 12:16:00,
2013-05-29 08:21:00,72.0,65.5,30.16,West,280,7.0,9.0,80,0.00,,,0.01,221,Wunderground v.1.15,2013-05-29 12:21:00,
2013-05-29 08:27:00,73.1,66.9,30.17,West,279,7.0,13.0,81,0.00,,,0.01,309,Wunderground v.1.15,2013-05-29 12:27:00,
2013-05-29 08:32:00,73.9,66.6,30.17,NNE,30,6.0,12.0,78,0.00,,,0.01,279,Wunderground v.1.15,2013-05-29 12:32:00,
2013-05-29 08:38:00,74.6,66.1,30.17,West,272,6.0,15.0,75,0.00,,,0.01,281,Wunderground v.1.15,2013-05-29 12:38:00,
2013-05-29 08:43:00,75.0,66.1,30.17,West,269,6.0,15.0,74,0.00,,,0.01,279,Wunderground v.1.15,2013-05-29 12:43:00,
2013-05-29 08:48:00,75.2,65.9,30.17,NW,311,5.0,15.0,73,0.00,,,0.01,302,Wunderground v.1.15,2013-05-29 12:48:00,
2013-05-29 08:53:00,75.4,66.5,30.17,North,360,6.0,13.0,74,0.00,,,0.01,350,Wunderground v.1.15,2013-05-29 12:53:00,
2013-05-29 08:59:00,75.8,66.1,30.16,SSW,207,9.0,13.0,72,0.00,,,0.01,318,Wunderground v.1.15,2013-05-29 12:59:00,
2013-05-29 09:05:00,76.1,66.8,30.17,NE,42,9.0,14.0,73,0.00,,,0.01,308,Wunderground v.1.15,2013-05-29 13:05:00,
2013-05-29 09:10:00,76.2,66.9,30.17,West,275,4.0,8.0,73,0.00,,,0.01,315,Wunderground v.1.15,2013-05-29 13:10:00,
2013-05-29 09:15:00,76.3,66.6,30.17,West,273,5.0,12.0,72,0.00,,,0.01,299,Wunderground v.1.15,2013-05-29 13:15:00,
2013-05-29 09:21:00,76.4,66.7,30.17,SSE,150,9.0,13.0,72,0.00,,,0.01,311,Wunderground v.1.15,2013-05-29 13:21:00,
2013-05-29 09:26:00,76.5,66.0,30.17,North,360,11.0,20.0,70,0.00,,,0.01,313,Wunderground v.1.15,2013-05-29 13:26:00,
2013-05-29 09:31:00,76.6,66.1,30.17,SSW,200,10.0,10.0,70,0.00,,,0.01,341,Wunderground v.1.15,2013-05-29 13:31:00,
2013-05-29 09:37:00,76.7,66.2,30.17,WSW,250,9.0,21.0,70,0.00,,,0.01,360,Wunderground v.1.15,2013-05-29 13:37:00,
2013-05-29 09:42:00,76.8,65.9,30.17,North,360,9.0,10.0,69,0.00,,,0.01,343,Wunderground v.1.15,2013-05-29 13:42:00,
2013-05-29 09:48:00,77.0,67.3,30.17,North,360,7.0,15.0,72,0.00,,,0.01,352,Wunderground v.1.15,2013-05-29 13:48:00,
2013-05-29 09:53:00,77.1,67.0,30.17,WSW,248,6.0,15.0,71,0.00,,,0.01,387,Wunderground v.1.15,2013-05-29 13:53:00,
2013-05-29 09:58:00,77.2,67.5,30.17,SSW,198,7.0,15.0,72,0.00,,,0.01,445,Wunderground v.1.15,2013-05-29 13:58:00,
2013-05-29 10:04:00,77.5,67.8,30.17,North,360,9.0,14.0,72,0.00,,,0.01,388,Wunderground v.1.15,2013-05-29 14:04:00,
2013-05-29 10:09:00,77.6,67.0,30.17,WSW,252,8.0,14.0,70,0.00,,,0.01,390,Wunderground v.1.15,2013-05-29 14:09:00,
2013-05-29 10:15:00,77.7,67.1,30.17,South,183,7.0,9.0,70,0.00,,,0.01,466,Wunderground v.1.15,2013-05-29 14:15:00,
2013-05-29 10:20:00,78.0,68.6,30.18,SW,222,8.0,8.0,73,0.00,,,0.01,427,Wunderground v.1.15,2013-05-29 14:20:00,
2013-05-29 10:25:00,78.2,67.6,30.18,NW,304,8.0,13.0,70,0.00,,,0.01,425,Wunderground v.1.15,2013-05-29 14:25:00,
2013-05-29 10:31:00,78.3,67.7,30.17,SSW,196,8.0,8.0,70,0.00,,,0.01,427,Wunderground v.1.15,2013-05-29 14:31:00,
2013-05-29 10:36:00,78.4,67.0,30.17,WNW,285,7.0,13.0,68,0.00,,,0.01,454,Wunderground v.1.15,2013-05-29 14:36:00,
2013-05-29 10:42:00,78.8,68.6,30.17,SW,215,7.0,14.0,71,0.00,,,0.01,459,Wunderground v.1.15,2013-05-29 14:42:00,
2013-05-29 10:47:00,79.0,69.2,30.18,WNW,302,7.0,14.0,72,0.00,,,0.01,464,Wunderground v.1.15,2013-05-29 14:47:00,
2013-05-29 10:52:00,79.1,67.6,30.18,WSW,252,8.0,12.0,68,0.00,,,0.01,522,Wunderground v.1.15,2013-05-29 14:52:00,
2013-05-29 10:58:00,79.2,66.9,30.18,North,360,8.0,12.0,66,0.00,,,0.01,649,Wunderground v.1.15,2013-05-29 14:58:00,
2013-05-29 11:04:00,79.8,69.6,30.18,SW,219,5.0,12.0,71,0.00,,,0.01,629,Wunderground v.1.15,2013-05-29 15:04:00,
2013-05-29 11:09:00,80.1,67.3,30.18,North,360,7.0,12.0,65,0.00,,,0.01,759,Wunderground v.1.15,2013-05-29 15:09:00,
2013-05-29 11:14:00,80.6,69.9,30.18,SW,215,6.0,9.0,70,0.00,,,0.01,721,Wunderground v.1.15,2013-05-29 15:14:00,
2013-05-29 11:20:00,81.0,69.4,30.18,South,173,6.0,6.0,68,0.00,,,0.01,659,Wunderground v.1.15,2013-05-29 15:20:00,
2013-05-29 11:25:00,81.4,69.8,30.18,SW,223,5.0,8.0,68,0.00,,,0.01,779,Wunderground v.1.15,2013-05-29 15:25:00,
2013-05-29 11:30:00,82.0,70.0,30.18,SSW,197,5.0,5.0,67,0.00,,,0.01,879,Wunderground v.1.15,2013-05-29 15:30:00,
2013-05-29 11:36:00,82.2,68.8,30.18,SSW,203,8.0,16.0,64,0.00,,,0.01,220,Wunderground v.1.15,2013-05-29 15:36:00,
2013-05-29 11:41:00,82.3,68.9,30.18,WSW,247,8.0,8.0,64,0.00,,,0.01,628,Wunderground v.1.15,2013-05-29 15:41:00,
2013-05-29 11:46:00,82.4,68.5,30.18,West,264,6.0,14.0,63,0.00,,,0.01,896,Wunderground v.1.15,2013-05-29 15:46:00,
2013-05-29 11:52:00,83.1,69.7,30.18,SW,224,7.0,7.0,64,0.00,,,0.01,935,Wunderground v.1.15,2013-05-29 15:52:00,
2013-05-29 11:57:00,83.4,70.4,30.18,North,360,7.0,14.0,65,0.00,,,0.01,919,Wunderground v.1.15,2013-05-29 15:57:00,
2013-05-29 12:03:00,83.5,67.7,30.18,WSW,248,8.0,19.0,59,0.00,,,0.01,930,Wunderground v.1.15,2013-05-29 16:03:00,
2013-05-29 12:08:00,83.7,70.7,30.18,SW,224,8.0,19.0,65,0.00,,,0.01,921,Wunderground v.1.15,2013-05-29 16:08:00,
2013-05-29 12:14:00,84.1,68.7,30.18,North,360,7.0,14.0,60,0.00,,,0.01,946,Wunderground v.1.15,2013-05-29 16:14:00,
2013-05-29 12:19:00,84.4,69.5,30.18,WNW,290,8.0,14.0,61,0.00,,,0.01,946,Wunderground v.1.15,2013-05-29 16:19:00,
2013-05-29 12:24:00,84.8,69.4,30.18,North,355,7.0,8.0,60,0.00,,,0.01,940,Wunderground v.1.15,2013-05-29 16:24:00,
2013-05-29 12:30:00,85.0,71.5,30.18,WSW,247,7.0,14.0,64,0.00,,,0.01,953,Wunderground v.1.15,2013-05-29 16:30:00,
2013-05-29 12:35:00,85.3,70.3,30.17,West,259,9.0,16.0,61,0.00,,,0.01,1009,Wunderground v.1.15,2013-05-29 16:35:00,
2013-05-29 12:40:00,85.4,69.4,30.17,WSW,245,10.0,10.0,59,0.00,,,0.01,1009,Wunderground v.1.15,2013-05-29 16:40:00,
2013-05-29 12:45:00,85.6,70.1,30.17,SSW,211,8.0,10.0,60,0.00,,,0.01,988,Wunderground v.1.15,2013-05-29 16:45:00,
2013-05-29 12:51:00,86.2,70.2,30.17,South,185,8.0,9.0,59,0.00,,,0.01,914,Wunderground v.1.15,2013-05-29 16:51:00,
2013-05-29 12:56:00,86.5,70.0,30.18,West,281,9.0,22.0,58,0.00,,,0.01,1009,Wunderground v.1.15,2013-05-29 16:56:00,
2013-05-29 13:02:00,86.3,68.2,30.17,SW,218,11.0,17.0,55,0.00,,,0.01,1027,Wunderground v.1.15,2013-05-29 17:02:00,
2013-05-29 13:08:00,86.5,68.9,30.17,WSW,245,13.0,17.0,56,0.00,,,0.01,1030,Wunderground v.1.15,2013-05-29 17:08:00,
2013-05-29 13:13:00,86.6,69.0,30.17,NW,306,11.0,13.0,56,0.00,,,0.01,1048,Wunderground v.1.15,2013-05-29 17:13:00,
2013-05-29 13:18:00,86.7,67.5,30.17,West,271,10.0,15.0,53,0.00,,,0.01,1065,Wunderground v.1.15,2013-05-29 17:18:00,
2013-05-29 13:23:00,86.8,67.6,30.17,WSW,244,10.0,20.0,53,0.00,,,0.01,1030,Wunderground v.1.15,2013-05-29 17:23:00,
2013-05-29 13:29:00,86.7,68.6,30.17,West,278,10.0,20.0,55,0.00,,,0.01,589,Wunderground v.1.15,2013-05-29 17:29:00,
2013-05-29 13:34:00,86.3,68.8,30.17,WSW,254,9.0,14.0,56,0.00,,,0.01,619,Wunderground v.1.15,2013-05-29 17:34:00,
2013-05-29 13:39:00,86.4,69.9,30.17,West,274,9.0,15.0,58,0.00,,,0.01,1051,Wunderground v.1.15,2013-05-29 17:39:00,
2013-05-29 13:45:00,86.5,67.9,30.17,WNW,293,12.0,23.0,54,0.00,,,0.01,1099,Wunderground v.1.15,2013-05-29 17:45:00,
2013-05-29 13:50:00,87.2,68.0,30.17,North,360,10.0,12.0,53,0.00,,,0.01,1092,Wunderground v.1.15,2013-05-29 17:50:00,
2013-05-29 13:56:00,87.0,68.9,30.17,SSW,200,10.0,17.0,55,0.00,,,0.01,606,Wunderground v.1.15,2013-05-29 17:56:00,
2013-05-29 14:01:00,86.3,67.7,30.17,SW,231,12.0,16.0,54,0.00,,,0.01,675,Wunderground v.1.15,2013-05-29 18:01:00,
2013-05-29 14:07:00,86.0,66.9,30.17,West,275,11.0,16.0,53,0.00,,,0.01,619,Wunderground v.1.15,2013-05-29 18:07:00,
2013-05-29 14:12:00,85.5,67.0,30.16,North,360,10.0,17.0,54,0.00,,,0.01,387,Wunderground v.1.15,2013-05-29 18:12:00,
2013-05-29 14:17:00,84.9,66.9,30.16,West,277,9.0,17.0,55,0.00,,,0.01,316,Wunderground v.1.15,2013-05-29 18:17:00,
2013-05-29 14:23:00,84.3,66.9,30.17,North,360,8.0,15.0,56,0.00,,,0.01,285,Wunderground v.1.15,2013-05-29 18:23:00,
2013-05-29 14:28:00,84.0,68.1,30.16,WSW,245,8.0,15.0,59,0.00,,,0.01,404,Wunderground v.1.15,2013-05-29 18:28:00,
2013-05-29 14:33:00,84.1,68.7,30.16,West,271,5.0,10.0,60,0.00,,,0.01,431,Wunderground v.1.15,2013-05-29 18:33:00,
2013-05-29 14:39:00,84.5,70.0,30.16,West,265,4.0,10.0,62,0.00,,,0.01,650,Wunderground v.1.15,2013-05-29 18:39:00,
2013-05-29 14:44:00,84.8,69.4,30.16,WSW,246,2.0,5.0,60,0.00,,,0.01,545,Wunderground v.1.15,2013-05-29 18:44:00,
2013-05-29 14:49:00,85.2,70.2,30.16,WSW,252,4.0,10.0,61,0.00,,,0.01,1020,Wunderground v.1.15,2013-05-29 18:49:00,
2013-05-29 14:55:00,86.0,68.0,30.16,West,281,5.0,6.0,55,0.00,,,0.01,986,Wunderground v.1.15,2013-05-29 18:55:00,
2013-05-29 15:00:00,86.8,68.7,30.15,SW,221,4.0,5.0,55,0.00,,,0.01,954,Wunderground v.1.15,2013-05-29 19:00:00,
2013-05-29 15:06:00,87.2,68.0,30.15,West,260,7.0,13.0,53,0.00,,,0.01,882,Wunderground v.1.15,2013-05-29 19:06:00,
2013-05-29 15:11:00,87.5,69.3,30.15,NW,304,8.0,9.0,55,0.00,,,0.01,677,Wunderground v.1.15,2013-05-29 19:11:00,
2013-05-29 15:17:00,87.7,68.4,30.15,WSW,242,8.0,11.0,53,0.00,,,0.01,735,Wunderground v.1.15,2013-05-29 19:17:00,
2013-05-29 15:22:00,87.9,68.6,30.15,WNW,290,9.0,12.0,53,0.00,,,0.01,759,Wunderground v.1.15,2013-05-29 19:22:00,
2013-05-29 15:27:00,88.0,69.3,30.15,NW,319,9.0,12.0,54,0.00,,,0.01,642,Wunderground v.1.15,2013-05-29 19:27:00,
2013-05-29 15:32:00,88.0,68.7,30.15,West,269,7.0,8.0,53,0.00,,,0.01,352,Wunderground v.1.15,2013-05-29 19:32:00,
2013-05-29 15:38:00,87.7,70.1,30.15,WNW,284,5.0,13.0,56,0.00,,,0.01,390,Wunderground v.1.15,2013-05-29 19:38:00,
2013-05-29 15:44:00,87.3,68.1,30.15,West,266,7.0,13.0,53,0.00,,,0.01,468,Wunderground v.1.15,2013-05-29 19:44:00,
2013-05-29 15:49:00,87.0,68.9,30.15,North,360,8.0,13.0,55,0.00,,,0.01,461,Wunderground v.1.15,2013-05-29 19:49:00,
2013-05-29 15:54:00,87.0,67.2,30.14,SW,221,7.0,12.0,52,0.00,,,0.01,793,Wunderground v.1.15,2013-05-29 19:54:00,
2013-05-29 15:59:00,87.1,67.9,30.14,SW,223,6.0,12.0,53,0.00,,,0.01,482,Wunderground v.1.15,2013-05-29 19:59:00,
2013-05-29 16:05:00,87.7,69.0,30.14,WSW,240,6.0,9.0,54,0.00,,,0.01,613,Wunderground v.1.15,2013-05-29 20:05:00,
2013-05-29 16:11:00,88.1,67.7,30.14,West,274,7.0,9.0,51,0.00,,,0.01,536,Wunderground v.1.15,2013-05-29 20:11:00,
2013-05-29 16:16:00,88.0,68.2,30.14,WNW,284,8.0,12.0,52,0.00,,,0.01,682,Wunderground v.1.15,2013-05-29 20:16:00,
2013-05-29 16:22:00,88.5,68.1,30.14,West,279,4.0,6.0,51,0.00,,,0.01,679,Wunderground v.1.15,2013-05-29 20:22:00,
2013-05-29 16:27:00,88.6,69.3,30.14,West,266,3.0,8.0,53,0.00,,,0.01,171,Wunderground v.1.15,2013-05-29 20:27:00,
2013-05-29 16:32:00,88.7,67.7,30.14,SW,232,5.0,8.0,50,0.00,,,0.01,621,Wunderground v.1.15,2013-05-29 20:32:00,
2013-05-29 16:38:00,88.4,69.1,30.13,WSW,243,6.0,9.0,53,0.00,,,0.01,670,Wunderground v.1.15,2013-05-29 20:38:00,
2013-05-29 16:43:00,88.4,68.0,30.13,West,261,5.0,7.0,51,0.00,,,0.01,176,Wunderground v.1.15,2013-05-29 20:43:00,
2013-05-29 16:48:00,88.4,68.5,30.13,North,360,4.0,8.0,52,0.00,,,0.01,605,Wunderground v.1.15,2013-05-29 20:48:00,
2013-05-29 16:54:00,88.6,70.4,30.13,SW,219,4.0,8.0,55,0.00,,,0.01,578,Wunderground v.1.15,2013-05-29 20:54:00,
2013-05-29 16:59:00,89.1,69.2,30.13,West,265,5.0,14.0,52,0.00,,,0.01,550,Wunderground v.1.15,2013-05-29 20:59:00,
2013-05-29 17:05:00,89.0,70.2,30.13,SW,221,6.0,10.0,54,0.00,,,0.01,538,Wunderground v.1.15,2013-05-29 21:05:00,
2013-05-29 17:10:00,89.0,69.6,30.13,North,360,5.0,5.0,53,0.00,,,0.01,529,Wunderground v.1.15,2013-05-29 21:10:00,
2013-05-29 17:15:00,89.0,69.6,30.13,North,360,5.0,7.0,53,0.00,,,0.01,506,Wunderground v.1.15,2013-05-29 21:15:00,
2013-05-29 17:21:00,88.9,67.9,30.13,WNW,282,6.0,7.0,50,0.00,,,0.01,376,Wunderground v.1.15,2013-05-29 21:21:00,
2013-05-29 17:26:00,88.8,70.0,30.13,WNW,301,6.0,7.0,54,0.00,,,0.01,469,Wunderground v.1.15,2013-05-29 21:26:00,
2013-05-29 17:32:00,88.8,67.8,30.13,West,265,6.0,10.0,50,0.00,,,0.01,446,Wunderground v.1.15,2013-05-29 21:32:00,
2013-05-29 17:37:00,88.8,68.3,30.13,North,360,6.0,10.0,51,0.00,,,0.01,432,Wunderground v.1.15,2013-05-29 21:37:00,
2013-05-29 17:42:00,88.9,69.0,30.13,North,360,6.0,8.0,52,0.00,,,0.01,420,Wunderground v.1.15,2013-05-29 21:42:00,
2013-05-29 17:48:00,88.7,68.2,30.13,NW,306,7.0,9.0,51,0.00,,,0.01,399,Wunderground v.1.15,2013-05-29 21:48:00,
2013-05-29 17:53:00,88.7,68.8,30.13,West,262,5.0,7.0,52,0.00,,,0.01,388,Wunderground v.1.15,2013-05-29 21:53:00,
2013-05-29 17:58:00,88.6,68.7,30.13,West,261,6.0,10.0,52,0.00,,,0.01,369,Wunderground v.1.15,2013-05-29 21:58:00,
2013-05-29 18:04:00,88.0,68.2,30.13,WNW,297,6.0,10.0,52,0.00,,,0.01,352,Wunderground v.1.15,2013-05-29 22:04:00,
2013-05-29 18:10:00,87.6,67.8,30.13,North,360,6.0,12.0,52,0.00,,,0.01,332,Wunderground v.1.15,2013-05-29 22:10:00,
2013-05-29 18:15:00,87.2,69.1,30.13,WNW,299,7.0,12.0,55,0.00,,,0.01,320,Wunderground v.1.15,2013-05-29 22:15:00,
2013-05-29 18:20:00,86.9,67.7,30.13,West,263,7.0,7.0,53,0.00,,,0.01,290,Wunderground v.1.15,2013-05-29 22:20:00,
2013-05-29 18:26:00,86.7,67.0,30.13,West,279,5.0,14.0,52,0.00,,,0.01,276,Wunderground v.1.15,2013-05-29 22:26:00,
2013-05-29 18:31:00,86.6,68.0,30.13,West,272,6.0,11.0,54,0.00,,,0.01,262,Wunderground v.1.15,2013-05-29 22:31:00,
2013-05-29 18:36:00,86.4,68.3,30.13,SSW,206,8.0,11.0,55,0.00,,,0.01,250,Wunderground v.1.15,2013-05-29 22:36:00,
2013-05-29 18:41:00,85.9,67.9,30.14,West,268,7.0,8.0,55,0.00,,,0.01,239,Wunderground v.1.15,2013-05-29 22:41:00,
2013-05-29 18:47:00,85.2,67.7,30.14,West,277,5.0,8.0,56,0.00,,,0.01,127,Wunderground v.1.15,2013-05-29 22:47:00,
2013-05-29 18:52:00,84.7,67.8,30.14,North,360,5.0,7.0,57,0.00,,,0.01,74,Wunderground v.1.15,2013-05-29 22:52:00,
2013-05-29 18:58:00,84.2,68.8,30.14,SW,222,5.0,8.0,60,0.00,,,0.01,65,Wunderground v.1.15,2013-05-29 22:58:00,
2013-05-29 19:03:00,83.8,67.4,30.14,WNW,290,5.0,6.0,58,0.00,,,0.01,51,Wunderground v.1.15,2013-05-29 23:03:00,
2013-05-29 19:09:00,83.3,67.5,30.14,WNW,286,5.0,6.0,59,0.00,,,0.01,49,Wunderground v.1.15,2013-05-29 23:09:00,
2013-05-29 19:14:00,82.8,67.0,30.14,North,360,5.0,7.0,59,0.00,,,0.01,46,Wunderground v.1.15,2013-05-29 23:14:00,
2013-05-29 19:19:00,82.6,68.3,30.14,WNW,300,4.0,7.0,62,0.00,,,0.01,44,Wunderground v.1.15,2013-05-29 23:19:00,
2013-05-29 19:25:00,82.1,67.8,30.14,West,278,5.0,9.0,62,0.00,,,0.01,40,Wunderground v.1.15,2013-05-29 23:25:00,
2013-05-29 19:30:00,81.6,69.1,30.14,North,360,5.0,5.0,66,0.00,,,0.01,39,Wunderground v.1.15,2013-05-29 23:30:00,
2013-05-29 19:36:00,80.8,68.8,30.14,WNW,294,4.0,6.0,67,0.00,,,0.01,35,Wunderground v.1.15,2013-05-29 23:36:00,
2013-05-29 19:41:00,79.8,69.1,30.14,West,263,3.0,3.0,70,0.00,,,0.01,32,Wunderground v.1.15,2013-05-29 23:41:00,
2013-05-29 19:46:00,78.8,67.3,30.14,WNW,282,3.0,6.0,68,0.00,,,0.01,28,Wunderground v.1.15,2013-05-29 23:46:00,
2013-05-29 19:52:00,78.1,67.9,30.14,WNW,288,4.0,7.0,71,0.00,,,0.01,21,Wunderground v.1.15,2013-05-29 23:52:00,
2013-05-29 19:57:00,77.5,67.8,30.14,North,360,4.0,11.0,72,0.00,,,0.01,16,Wunderground v.1.15,2013-05-29 23:57:00,
2013-05-29 20:03:00,76.9,66.8,30.14,West,281,6.0,9.0,71,0.00,,,0.01,16,Wunderground v.1.15,2013-05-30 00:03:00,
2013-05-29 20:08:00,76.4,67.1,30.13,WNW,297,6.0,9.0,73,0.00,,,0.01,16,Wunderground v.1.15,2013-05-30 00:08:00,
2013-05-29 20:14:00,75.9,66.6,30.14,NW,305,6.0,6.0,73,0.00,,,0.01,14,Wunderground v.1.15,2013-05-30 00:14:00,
2013-05-29 20:19:00,75.5,66.2,30.14,NW,304,6.0,7.0,73,0.00,,,0.01,11,Wunderground v.1.15,2013-05-30 00:19:00,
2013-05-29 20:24:00,75.1,65.9,30.13,NW,313,5.0,6.0,73,0.00,,,0.01,9,Wunderground v.1.15,2013-05-30 00:24:00,
2013-05-29 20:30:00,74.8,65.6,30.14,NW,315,5.0,9.0,73,0.00,,,0.01,7,Wunderground v.1.15,2013-05-30 00:30:00,
2013-05-29 20:35:00,74.5,65.3,30.14,North,360,6.0,10.0,73,0.00,,,0.01,5,Wunderground v.1.15,2013-05-30 00:35:00,
2013-05-29 20:40:00,74.2,65.0,30.14,WNW,300,7.0,7.0,73,0.00,,,0.01,0,Wunderground v.1.15,2013-05-30 00:40:00,
2013-05-29 20:46:00,73.8,64.6,30.14,WNW,301,7.0,8.0,73,0.00,,,0.01,0,Wunderground v.1.15,2013-05-30 00:46:00,
2013-05-29 20:51:00,73.2,65.6,30.14,West,280,4.0,5.0,77,0.00,,,0.01,0,Wunderground v.1.15,2013-05-30 00:51:00,
2013-05-29 20:56:00,72.6,65.3,30.14,WSW,248,1.0,5.0,78,0.00,,,0.01,0,Wunderground v.1.15,2013-05-30 00:56:00,
2013-05-29 21:02:00,72.0,64.8,30.14,SW,232,0.0,0.0,78,0.00,,,0.01,0,Wunderground v.1.15,2013-05-30 01:02:00,
2013-05-29 21:08:00,71.7,64.8,30.14,SW,233,0.0,0.0,79,0.00,,,0.01,0,Wunderground v.1.15,2013-05-30 01:08:00,
2013-05-29 21:13:00,71.3,64.8,30.14,SW,232,1.0,3.0,80,0.00,,,0.01,0,Wunderground v.1.15,2013-05-30 01:13:00,
2013-05-29 21:18:00,71.0,64.5,30.14,SW,233,1.0,3.0,80,0.00,,,0.01,0,Wunderground v.1.15,2013-05-30 01:18:00,
2013-05-29 21:24:00,70.7,64.2,30.14,SW,232,0.0,1.0,80,0.00,,,0.01,0,Wunderground v.1.15,2013-05-30 01:24:00,
2013-05-29 21:29:00,70.5,64.4,30.14,SW,234,0.0,1.0,81,0.00,,,0.01,0,Wunderground v.1.15,2013-05-30 01:29:00,
2013-05-29 21:34:00,70.2,64.1,30.14,WNW,290,0.0,3.0,81,0.00,,,0.01,0,Wunderground v.1.15,2013-05-30 01:34:00,
2013-05-29 21:40:00,70.0,64.2,30.15,NW,309,1.0,4.0,82,0.00,,,0.01,0,Wunderground v.1.15,2013-05-30 01:40:00,
2013-05-29 21:45:00,69.8,64.4,30.15,West,269,3.0,6.0,83,0.00,,,0.01,0,Wunderground v.1.15,2013-05-30 01:45:00,
2013-05-29 21:50:00,69.5,64.1,30.15,WNW,284,4.0,5.0,83,0.00,,,0.01,0,Wunderground v.1.15,2013-05-30 01:50:00,
2013-05-29 21:56:00,69.4,64.0,30.15,West,262,3.0,6.0,83,0.00,,,0.01,0,Wunderground v.1.15,2013-05-30 01:56:00,
2013-05-29 22:02:00,69.4,64.0,30.15,West,281,4.0,8.0,83,0.00,,,0.01,0,Wunderground v.1.15,2013-05-30 02:02:00,
2013-05-29 22:07:00,69.5,64.1,30.15,WNW,285,5.0,8.0,83,0.00,,,0.01,0,Wunderground v.1.15,2013-05-30 02:07:00,
2013-05-29 22:12:00,69.5,64.1,30.15,WSW,241,5.0,6.0,83,0.00,,,0.01,0,Wunderground v.1.15,2013-05-30 02:12:00,
2013-05-29 22:18:00,69.4,64.4,30.15,West,271,3.0,6.0,84,0.00,,,0.01,0,Wunderground v.1.15,2013-05-30 02:18:00,
2013-05-29 22:23:00,69.2,64.2,30.15,West,271,1.0,2.0,84,0.00,,,0.01,0,Wunderground v.1.15,2013-05-30 02:23:00,
2013-05-29 22:28:00,69.0,64.0,30.15,NW,307,0.0,2.0,84,0.00,,,0.01,0,Wunderground v.1.15,2013-05-30 02:28:00,
2013-05-29 22:34:00,68.7,63.7,30.15,WNW,299,3.0,6.0,84,0.00,,,0.01,0,Wunderground v.1.15,2013-05-30 02:34:00,
2013-05-29 22:39:00,68.5,64.1,30.15,WNW,298,3.0,6.0,86,0.00,,,0.01,0,Wunderground v.1.15,2013-05-30 02:39:00,
2013-05-29 22:44:00,68.3,63.9,30.16,South,179,1.0,3.0,86,0.00,,,0.01,0,Wunderground v.1.15,2013-05-30 02:44:00,
2013-05-29 22:50:00,68.0,63.7,30.16,South,180,1.0,1.0,86,0.00,,,0.01,0,Wunderground v.1.15,2013-05-30 02:50:00,
2013-05-29 22:55:00,67.7,63.4,30.16,South,178,0.0,1.0,86,0.00,,,0.01,0,Wunderground v.1.15,2013-05-30 02:55:00,
2013-05-29 23:00:00,67.5,63.2,30.16,South,182,0.0,0.0,86,0.00,,,0.01,0,Wunderground v.1.15,2013-05-30 03:00:00,
2013-05-29 23:06:00,67.4,63.4,30.16,South,182,0.0,0.0,87,0.00,,,0.01,0,Wunderground v.1.15,2013-05-30 03:06:00,
2013-05-29 23:12:00,67.3,63.6,30.16,South,180,0.0,0.0,88,0.00,,,0.01,0,Wunderground v.1.15,2013-05-30 03:12:00,
2013-05-29 23:17:00,67.1,63.4,30.16,South,182,0.0,0.0,88,0.00,,,0.01,0,Wunderground v.1.15,2013-05-30 03:17:00,
2013-05-29 23:22:00,67.0,63.3,30.16,South,183,0.0,0.0,88,0.00,,,0.01,0,Wunderground v.1.15,2013-05-30 03:22:00,
2013-05-29 23:28:00,66.7,63.4,30.16,South,180,0.0,0.0,89,0.00,,,0.01,0,Wunderground v.1.15,2013-05-30 03:28:00,
2013-05-29 23:33:00,66.4,63.1,30.16,South,182,0.0,0.0,89,0.00,,,0.01,0,Wunderground v.1.15,2013-05-30 03:33:00,
2013-05-29 23:38:00,66.2,62.9,30.16,South,181,0.0,0.0,89,0.00,,,0.01,0,Wunderground v.1.15,2013-05-30 03:38:00,
2013-05-29 23:44:00,66.0,63.0,30.16,South,180,0.0,1.0,90,0.00,,,0.01,0,Wunderground v.1.15,2013-05-30 03:44:00,
2013-05-29 23:49:00,65.8,62.8,30.16,South,180,0.0,1.0,90,0.00,,,0.01,0,Wunderground v.1.15,2013-05-30 03:49:00,
2013-05-29 23:54:00,65.6,62.9,30.16,South,182,0.0,0.0,91,0.00,,,0.01,0,Wunderground v.1.15,2013-05-30 03:54:00,